createdAt,value
2019-02-06T00:04:51.367Z,34.08
2019-02-06T00:07:38.332Z,33.25
2019-02-06T00:10:07.368Z,30.77
2019-02-06T00:15:57.047Z,35.08
2019-02-06T00:18:12.473Z,27.73
2019-02-06T00:20:40.417Z,29.55
2019-02-06T00:26:36.118Z,32.10
2019-02-06T00:29:06.217Z,33.33
2019-02-06T00:31:54.507Z,33.05
2019-02-06T00:34:41.410Z,33.23
2019-02-06T00:37:09.357Z,28.90
2019-02-06T00:39:37.218Z,31.27
2019-02-06T00:42:05.163Z,29.37
2019-02-06T00:44:53.756Z,30.05
2019-02-06T00:47:21.990Z,27.98
2019-02-06T00:49:49.833Z,27.52
2019-02-06T00:52:17.757Z,27.55
2019-02-06T00:54:45.601Z,30.25
2019-02-06T01:00:20.390Z,28.67
2019-02-06T01:03:08.219Z,27.58
2019-02-06T01:05:56.766Z,29.63
2019-02-06T01:08:27.245Z,28.90
2019-02-06T01:10:55.094Z,29.40
2019-02-06T01:16:11.731Z,27.75
2019-02-06T01:18:40.006Z,28.73
2019-02-06T01:21:07.907Z,31.37
2019-02-06T01:26:41.311Z,29.82
2019-02-06T01:29:09.186Z,29.37
2019-02-06T01:31:37.063Z,29.10
2019-02-06T01:34:06.646Z,30.00
2019-02-06T01:36:34.653Z,26.80
2019-02-06T01:44:37.685Z,28.20
2019-02-06T01:47:05.546Z,29.48
2019-02-06T01:49:33.441Z,26.25
2019-02-06T01:52:02.294Z,30.50
2019-02-06T01:54:30.499Z,25.68
2019-02-06T01:56:58.427Z,31.73
2019-02-06T01:59:28.048Z,29.87
2019-02-06T02:01:56.347Z,30.02
2019-02-06T02:04:24.206Z,26.80
2019-02-06T02:06:52.045Z,28.83
2019-02-06T02:12:09.110Z,27.35
2019-02-06T02:14:37.045Z,24.30
2019-02-06T02:17:05.013Z,27.30
2019-02-06T02:19:35.434Z,26.65
2019-02-06T02:22:22.404Z,25.92
2019-02-06T02:24:51.934Z,24.15
2019-02-06T02:27:38.926Z,26.37
2019-02-06T02:33:01.862Z,26.77
2019-02-06T02:35:29.737Z,23.57
2019-02-06T02:37:57.588Z,26.55
2019-02-06T02:40:25.470Z,24.87
2019-02-06T02:42:53.430Z,24.18
2019-02-06T02:48:22.799Z,21.77
2019-02-06T02:51:11.795Z,27.55
2019-02-06T02:53:39.674Z,24.92
2019-02-06T02:56:07.537Z,22.48
2019-02-06T02:58:35.733Z,23.87
2019-02-06T03:01:24.734Z,22.22
2019-02-06T03:04:11.865Z,22.20
2019-02-06T03:06:50.833Z,22.85
2019-02-06T03:09:18.779Z,19.77
2019-02-06T03:11:46.686Z,21.12
2019-02-06T03:14:16.243Z,20.65
2019-02-06T03:17:04.413Z,22.48
2019-02-06T03:19:32.261Z,20.43
2019-02-06T03:22:00.170Z,22.45
2019-02-06T03:24:28.134Z,19.65
2019-02-06T03:26:56.482Z,21.52
2019-02-06T03:32:11.530Z,21.60
2019-02-06T03:34:39.554Z,21.80
2019-02-06T03:37:07.408Z,21.75
2019-02-06T03:39:39.039Z,22.02
2019-02-06T03:42:06.894Z,22.58
2019-02-06T03:47:37.415Z,19.98
2019-02-06T03:53:32.489Z,20.62
2019-02-06T03:56:00.394Z,19.85
2019-02-06T04:01:15.285Z,19.95
2019-02-06T04:03:44.967Z,19.42
2019-02-06T04:06:12.813Z,19.67
2019-02-06T04:09:02.770Z,21.93
2019-02-06T04:11:30.674Z,19.32
2019-02-06T04:13:58.704Z,20.50
2019-02-06T04:16:45.621Z,20.70
2019-02-06T04:19:28.069Z,19.40
2019-02-06T04:21:45.163Z,20.35
2019-02-06T04:24:13.083Z,19.42
2019-02-06T04:26:42.859Z,18.23
2019-02-06T04:34:40.003Z,18.42
2019-02-06T04:37:29.163Z,18.77
2019-02-06T04:40:08.042Z,19.02
2019-02-06T04:42:35.925Z,17.70
2019-02-06T04:45:05.629Z,18.52
2019-02-06T04:47:52.498Z,18.25
2019-02-06T04:50:20.417Z,17.07
2019-02-06T04:58:22.381Z,17.95
2019-02-06T05:01:09.280Z,17.60
2019-02-06T05:09:07.275Z,18.62
2019-02-06T05:11:36.867Z,17.80
2019-02-06T05:14:04.887Z,17.85
2019-02-06T05:16:35.094Z,18.90
2019-02-06T05:19:02.988Z,16.32
2019-02-06T05:24:25.245Z,16.75
2019-02-06T05:29:27.907Z,18.65
2019-02-06T05:31:55.786Z,16.40
2019-02-06T05:34:23.624Z,17.05
2019-02-06T05:36:51.508Z,18.07
2019-02-06T05:39:19.386Z,17.15
2019-02-06T05:42:08.135Z,20.15
2019-02-06T05:47:47.914Z,16.97
2019-02-06T05:50:15.836Z,15.43
2019-02-06T05:55:48.958Z,16.07
2019-02-06T05:58:16.849Z,18.55
2019-02-06T06:01:03.827Z,17.92
2019-02-06T06:03:33.487Z,17.05
2019-02-06T06:06:03.058Z,18.10
2019-02-06T06:08:31.034Z,18.20
2019-02-06T06:10:58.894Z,19.50
2019-02-06T06:13:26.766Z,17.60
2019-02-06T06:15:54.805Z,17.40
2019-02-06T06:21:16.769Z,16.02
2019-02-06T06:23:45.287Z,16.90
2019-02-06T06:26:15.152Z,14.78
2019-02-06T06:29:04.314Z,16.95
2019-02-06T06:31:32.166Z,17.67
2019-02-06T06:33:59.965Z,16.67
2019-02-06T06:36:27.762Z,16.32
2019-02-06T06:38:55.570Z,15.75
2019-02-06T06:41:23.353Z,16.15
2019-02-06T06:43:53.337Z,16.80
2019-02-06T06:46:21.128Z,16.25
2019-02-06T06:48:48.954Z,15.18
2019-02-06T06:51:16.741Z,14.90
2019-02-06T06:53:44.572Z,15.13
2019-02-06T06:56:12.357Z,19.75
2019-02-06T06:58:40.157Z,15.25
2019-02-06T07:01:10.972Z,16.00
2019-02-06T07:03:39.221Z,15.40
2019-02-06T07:06:07.017Z,15.93
2019-02-06T07:08:34.844Z,15.58
2019-02-06T07:11:10.294Z,16.45
2019-02-06T07:13:38.108Z,15.98
2019-02-06T07:16:07.652Z,18.07
2019-02-06T07:18:35.495Z,15.80
2019-02-06T07:21:03.324Z,16.10
2019-02-06T07:23:31.120Z,15.95
2019-02-06T07:25:58.929Z,15.20
2019-02-06T07:28:26.730Z,15.45
2019-02-06T07:30:54.621Z,15.65
2019-02-06T07:33:24.142Z,15.00
2019-02-06T07:35:51.969Z,16.73
2019-02-06T07:38:24.459Z,15.48
2019-02-06T07:40:49.310Z,14.15
2019-02-06T07:43:17.123Z,16.85
2019-02-06T07:45:44.962Z,16.20
2019-02-06T07:48:12.760Z,16.00
2019-02-06T07:50:42.353Z,17.35
2019-02-06T07:53:10.154Z,16.15
2019-02-06T07:55:37.973Z,17.62
2019-02-06T07:58:05.799Z,16.90
2019-02-06T08:00:33.610Z,16.65
2019-02-06T08:03:01.605Z,16.60
2019-02-06T08:05:29.421Z,16.30
2019-02-06T08:07:59.171Z,18.48
2019-02-06T08:13:35.528Z,17.05
2019-02-06T08:16:03.345Z,16.32
2019-02-06T08:18:31.139Z,16.40
2019-02-06T08:20:59.170Z,17.62
2019-02-06T08:23:27.030Z,16.12
2019-02-06T08:25:54.826Z,16.87
2019-02-06T08:28:22.741Z,16.77
2019-02-06T08:30:50.535Z,15.95
2019-02-06T08:33:18.357Z,16.70
2019-02-06T08:35:46.150Z,18.35
2019-02-06T08:38:13.977Z,15.90
2019-02-06T08:40:41.757Z,16.07
2019-02-06T08:43:09.581Z,16.97
2019-02-06T08:45:37.461Z,16.52
2019-02-06T08:48:05.289Z,16.93
2019-02-06T08:50:33.153Z,17.50
2019-02-06T08:53:01.355Z,16.23
2019-02-06T08:58:36.995Z,15.85
2019-02-06T09:01:04.804Z,17.12
2019-02-06T09:03:32.622Z,18.00
2019-02-06T09:06:00.559Z,17.05
2019-02-06T09:08:28.419Z,16.75
2019-02-06T09:10:56.261Z,15.93
2019-02-06T09:13:24.083Z,17.32
2019-02-06T09:15:51.970Z,16.32
2019-02-06T09:18:22.544Z,17.80
2019-02-06T09:20:52.798Z,15.85
2019-02-06T09:23:20.403Z,17.20
2019-02-06T09:25:48.197Z,14.85
2019-02-06T09:28:16.041Z,14.95
2019-02-06T09:30:45.576Z,15.93
2019-02-06T09:33:13.361Z,14.63
2019-02-06T09:35:41.189Z,16.10
2019-02-06T09:38:08.995Z,15.78
2019-02-06T09:40:36.867Z,15.68
2019-02-06T09:46:12.178Z,17.20
2019-02-06T09:48:40.441Z,16.60
2019-02-06T09:51:08.284Z,14.20
2019-02-06T09:53:36.097Z,14.80
2019-02-06T09:56:03.926Z,15.08
2019-02-06T09:58:31.716Z,15.40
2019-02-06T10:00:59.538Z,14.63
2019-02-06T10:03:27.344Z,16.25
2019-02-06T10:05:55.200Z,14.03
2019-02-06T10:08:23.014Z,15.20
2019-02-06T10:10:50.865Z,15.25
2019-02-06T10:13:18.708Z,16.82
2019-02-06T10:15:46.543Z,15.93
2019-02-06T10:18:14.374Z,15.58
2019-02-06T10:20:43.645Z,17.27
2019-02-06T10:23:11.478Z,15.55
2019-02-06T10:25:39.402Z,16.05
2019-02-06T10:28:07.504Z,15.20
2019-02-06T10:33:43.977Z,14.73
2019-02-06T10:36:11.765Z,16.00
2019-02-06T10:38:39.595Z,16.42
2019-02-06T10:41:07.377Z,15.95
2019-02-06T10:43:35.908Z,17.02
2019-02-06T10:46:04.746Z,15.90
2019-02-06T10:48:32.566Z,15.78
2019-02-06T10:51:00.382Z,15.35
2019-02-06T10:53:28.200Z,16.23
2019-02-06T10:55:56.068Z,15.58
2019-02-06T10:58:23.952Z,16.80
2019-02-06T11:00:56.153Z,16.27
2019-02-06T11:03:23.972Z,14.05
2019-02-06T11:05:51.757Z,14.00
2019-02-06T11:08:19.550Z,15.35
2019-02-06T11:10:47.390Z,14.78
2019-02-06T11:13:16.958Z,15.28
2019-02-06T11:15:44.762Z,15.70
2019-02-06T11:18:12.766Z,15.48
2019-02-06T11:20:40.634Z,15.00
2019-02-06T11:23:08.561Z,15.45
2019-02-06T11:25:36.714Z,14.98
2019-02-06T11:31:12.447Z,16.27
2019-02-06T11:33:40.332Z,15.23
2019-02-06T11:36:08.155Z,15.05
2019-02-06T11:38:37.686Z,15.90
2019-02-06T11:41:05.516Z,16.05
2019-02-06T11:43:33.318Z,14.78
2019-02-06T11:46:01.174Z,15.18
2019-02-06T11:48:28.977Z,14.68
2019-02-06T11:50:56.801Z,15.28
2019-02-06T11:53:26.552Z,14.60
2019-02-06T11:55:55.321Z,14.23
2019-02-06T11:58:23.111Z,15.38
2019-02-06T12:01:09.981Z,15.30
2019-02-06T12:03:37.822Z,15.10
2019-02-06T12:08:59.785Z,14.75
2019-02-06T12:11:27.617Z,16.40
2019-02-06T12:13:55.486Z,17.52
2019-02-06T12:16:23.350Z,16.17
2019-02-06T12:18:52.859Z,14.50
2019-02-06T12:21:20.732Z,13.98
2019-02-06T12:23:48.615Z,14.85
2019-02-06T12:26:16.636Z,16.27
2019-02-06T12:28:44.465Z,17.98
2019-02-06T12:31:12.301Z,19.70
2019-02-06T12:33:40.108Z,14.53
2019-02-06T12:36:09.633Z,14.35
2019-02-06T12:38:37.562Z,15.85
2019-02-06T12:41:05.417Z,14.58
2019-02-06T12:43:33.241Z,13.70
2019-02-06T12:46:01.064Z,16.62
2019-02-06T12:48:28.899Z,16.20
2019-02-06T12:50:56.692Z,18.15
2019-02-06T12:53:24.509Z,16.40
2019-02-06T12:55:52.309Z,14.60
2019-02-06T12:58:20.549Z,16.10
2019-02-06T13:00:48.342Z,14.18
2019-02-06T13:03:16.180Z,14.25
2019-02-06T13:05:44.009Z,14.87
2019-02-06T13:08:11.837Z,14.23
2019-02-06T13:10:39.648Z,13.72
2019-02-06T13:13:07.485Z,15.65
2019-02-06T13:15:37.026Z,14.75
2019-02-06T13:20:58.493Z,15.13
2019-02-06T13:23:26.280Z,15.23
2019-02-06T13:25:55.834Z,15.68
2019-02-06T13:28:23.942Z,15.25
2019-02-06T13:30:51.743Z,15.28
2019-02-06T13:33:19.569Z,15.78
2019-02-06T13:35:47.401Z,17.95
2019-02-06T13:38:15.246Z,15.30
2019-02-06T13:40:45.591Z,14.80
2019-02-06T13:43:12.594Z,15.25
2019-02-06T13:45:41.777Z,15.13
2019-02-06T13:48:09.684Z,15.20
2019-02-06T13:50:37.508Z,14.80
2019-02-06T13:56:12.836Z,14.60
2019-02-06T13:58:40.630Z,14.73
2019-02-06T14:01:08.449Z,14.73
2019-02-06T14:03:55.317Z,14.85
2019-02-06T14:06:23.180Z,14.83
2019-02-06T14:08:50.986Z,15.65
2019-02-06T14:13:52.586Z,15.05
2019-02-06T14:16:20.473Z,15.18
2019-02-06T14:18:50.021Z,15.65
2019-02-06T14:21:17.854Z,14.55
2019-02-06T14:24:04.711Z,15.05
2019-02-06T14:26:36.674Z,17.70
2019-02-06T14:29:23.629Z,14.87
2019-02-06T14:32:10.524Z,14.87
2019-02-06T14:34:57.453Z,16.52
2019-02-06T14:37:32.773Z,18.40
2019-02-06T14:40:19.649Z,14.45
2019-02-06T14:43:06.582Z,15.55
2019-02-06T14:45:53.586Z,17.02
2019-02-06T14:48:24.457Z,15.08
2019-02-06T14:51:13.074Z,14.18
2019-02-06T14:53:59.987Z,15.55
2019-02-06T14:56:46.888Z,14.03
2019-02-06T14:59:33.893Z,13.90
2019-02-06T15:02:07.752Z,16.95
2019-02-06T15:04:56.375Z,16.05
2019-02-06T15:07:43.347Z,14.23
2019-02-06T15:10:30.246Z,16.42
2019-02-06T15:13:00.542Z,14.03
2019-02-06T15:15:40.700Z,17.90
2019-02-06T15:18:27.686Z,14.45
2019-02-06T15:21:14.561Z,16.75
2019-02-06T15:24:01.472Z,15.05
2019-02-06T15:26:48.350Z,14.60
2019-02-06T15:29:35.271Z,14.93
2019-02-06T15:32:22.236Z,15.20
2019-02-06T15:35:09.149Z,14.65
2019-02-06T15:37:42.670Z,13.85
2019-02-06T15:40:29.854Z,14.90
2019-02-06T15:43:00.470Z,14.23
2019-02-06T15:45:32.282Z,14.65
2019-02-06T15:48:19.194Z,13.53
2019-02-06T15:51:06.183Z,15.10
2019-02-06T15:53:53.092Z,20.05
2019-02-06T15:56:34.305Z,15.30
2019-02-06T15:59:16.205Z,16.77
2019-02-06T16:02:03.126Z,16.60
2019-02-06T16:05:09.063Z,14.87
2019-02-06T16:07:50.014Z,15.95
2019-02-06T16:10:36.919Z,15.23
2019-02-06T16:13:23.838Z,16.52
2019-02-06T16:16:10.765Z,14.73
2019-02-06T16:18:57.725Z,14.95
2019-02-06T16:21:53.178Z,16.62
2019-02-06T16:24:27.738Z,15.63
2019-02-06T16:27:14.650Z,15.43
2019-02-06T16:30:01.621Z,16.65
2019-02-06T16:32:48.620Z,15.63
2019-02-06T16:35:37.234Z,18.50
2019-02-06T16:38:24.204Z,20.82
2019-02-06T16:41:11.082Z,16.55
2019-02-06T16:43:57.979Z,14.15
2019-02-06T16:46:44.897Z,15.08
2019-02-06T16:49:18.054Z,15.58
2019-02-06T16:52:04.924Z,16.87
2019-02-06T16:54:51.861Z,15.25
2019-02-06T16:57:38.741Z,15.45
2019-02-06T17:00:25.653Z,15.70
2019-02-06T17:03:12.562Z,15.68
2019-02-06T17:05:59.508Z,15.08
2019-02-06T17:08:48.074Z,14.53
2019-02-06T17:11:34.984Z,15.72
2019-02-06T17:14:21.921Z,18.70
2019-02-06T17:17:01.351Z,14.98
2019-02-06T17:19:48.272Z,15.88
2019-02-06T17:22:36.887Z,15.60
2019-02-06T17:25:23.838Z,15.98
2019-02-06T17:28:10.719Z,17.82
2019-02-06T17:30:57.662Z,14.60
2019-02-06T17:33:33.705Z,14.83
2019-02-06T17:36:20.630Z,14.83
2019-02-06T17:42:30.653Z,15.50
2019-02-06T17:45:17.578Z,15.58
2019-02-06T17:48:04.530Z,16.55
2019-02-06T17:50:51.459Z,15.95
2019-02-06T17:53:38.486Z,14.60
2019-02-06T17:56:06.370Z,17.95
2019-02-06T17:58:36.053Z,18.35
2019-02-06T18:01:22.958Z,16.15
2019-02-06T18:04:09.928Z,16.42
2019-02-06T18:06:37.929Z,18.45
2019-02-06T18:12:01.910Z,14.15
2019-02-06T18:14:29.821Z,16.00
2019-02-06T18:16:57.670Z,16.40
2019-02-06T18:19:25.727Z,16.30
2019-02-06T18:22:14.432Z,16.52
2019-02-06T18:24:42.387Z,16.60
2019-02-06T18:33:11.535Z,21.30
2019-02-06T18:38:32.331Z,15.58
2019-02-06T18:41:01.712Z,15.40
2019-02-06T18:43:29.701Z,15.90
2019-02-06T18:45:57.703Z,15.72
2019-02-06T18:48:27.661Z,15.08
2019-02-06T18:50:57.402Z,15.90
2019-02-06T18:53:25.323Z,20.85
2019-02-06T18:55:53.723Z,17.40
2019-02-06T18:58:21.807Z,17.40
2019-02-06T19:00:49.941Z,15.88
2019-02-06T19:03:19.404Z,15.93
2019-02-06T19:08:41.608Z,17.17
2019-02-06T19:14:17.168Z,17.25
2019-02-06T19:16:45.205Z,15.50
2019-02-06T19:19:13.286Z,16.30
2019-02-06T19:21:41.260Z,16.95
2019-02-06T19:24:09.616Z,15.68
2019-02-06T19:26:37.973Z,17.05
2019-02-06T19:31:40.969Z,15.95
2019-02-06T19:34:08.839Z,17.12
2019-02-06T19:36:36.873Z,15.48
2019-02-06T19:39:07.463Z,14.23
2019-02-06T19:41:35.503Z,14.53
2019-02-06T19:44:03.378Z,14.95
2019-02-06T19:46:31.369Z,14.55
2019-02-06T19:49:00.332Z,14.85
2019-02-06T19:51:28.617Z,14.00
2019-02-06T19:53:56.599Z,15.53
2019-02-06T19:56:24.544Z,17.90
2019-02-06T19:58:52.856Z,14.85
2019-02-06T20:01:20.934Z,16.90
2019-02-06T20:03:48.915Z,14.15
2019-02-06T20:06:35.879Z,15.10
2019-02-06T20:09:22.856Z,16.93
2019-02-06T20:11:51.117Z,15.13
2019-02-06T20:14:19.129Z,17.27
2019-02-06T20:19:20.826Z,16.60
2019-02-06T20:21:50.352Z,15.40
2019-02-06T20:24:18.321Z,14.78
2019-02-06T20:26:46.427Z,14.65
2019-02-06T20:29:14.409Z,15.40
2019-02-06T20:31:42.425Z,15.55
2019-02-06T20:34:29.332Z,15.30
2019-02-06T20:36:57.364Z,15.05
2019-02-06T20:39:26.050Z,15.80
2019-02-06T20:41:54.154Z,15.25
2019-02-06T20:44:22.080Z,20.05
2019-02-06T20:46:50.046Z,14.30
2019-02-06T20:49:18.114Z,15.63
2019-02-06T20:51:46.095Z,15.43
2019-02-06T20:54:14.148Z,13.93
2019-02-06T20:56:42.105Z,13.90
2019-02-06T20:59:10.124Z,15.65
2019-02-06T21:01:57.131Z,14.50
2019-02-06T21:04:27.823Z,15.90
2019-02-06T21:06:55.877Z,15.90
2019-02-06T21:12:16.545Z,19.20
2019-02-06T21:14:44.619Z,15.70
2019-02-06T21:20:10.060Z,16.32
2019-02-06T21:22:37.932Z,16.05
2019-02-06T21:25:09.492Z,16.02
2019-02-06T21:32:53.875Z,16.90
2019-02-06T21:35:21.867Z,14.90
2019-02-06T21:37:49.846Z,16.00
2019-02-06T21:40:38.542Z,14.98
2019-02-06T21:46:00.523Z,15.18
2019-02-06T21:48:28.868Z,16.67
2019-02-06T21:50:56.806Z,15.90
2019-02-06T21:56:11.948Z,16.05
2019-02-06T21:58:41.470Z,15.88
2019-02-06T22:04:23.443Z,15.75
2019-02-06T22:06:53.488Z,15.63
2019-02-06T22:09:21.452Z,15.60
2019-02-06T22:11:49.454Z,15.88
2019-02-06T22:14:17.403Z,16.85
2019-02-06T22:16:45.349Z,16.55
2019-02-06T22:19:13.450Z,16.37
2019-02-06T22:24:16.273Z,15.98
2019-02-06T22:29:38.575Z,16.45
2019-02-06T22:35:00.905Z,16.40
2019-02-06T22:37:28.840Z,15.40
2019-02-06T22:39:58.814Z,16.17
2019-02-06T22:42:45.823Z,17.50
2019-02-06T22:45:45.046Z,15.63
2019-02-06T22:48:04.810Z,17.75
2019-02-06T22:50:53.514Z,16.15
2019-02-06T22:53:23.473Z,18.50
2019-02-06T22:55:51.343Z,17.23
2019-02-06T22:58:20.985Z,16.23
2019-02-06T23:09:37.110Z,15.18
2019-02-06T23:12:09.079Z,18.35
2019-02-06T23:14:36.973Z,15.85
2019-02-06T23:17:04.933Z,15.95
2019-02-06T23:19:34.889Z,18.32
2019-02-06T23:22:02.808Z,16.17
2019-02-06T23:24:30.737Z,16.62
2019-02-06T23:26:58.612Z,16.73
2019-02-06T23:29:26.993Z,16.60
2019-02-06T23:31:54.954Z,15.58
2019-02-06T23:34:22.898Z,17.35
2019-02-06T23:42:33.808Z,17.82
2019-02-06T23:45:03.989Z,15.30
2019-02-06T23:47:31.944Z,15.75
2019-02-06T23:50:01.572Z,18.40
2019-02-06T23:55:23.455Z,17.40
2019-02-06T23:57:51.329Z,16.15
